Time;durP1;ratioP1;P1;durP2;ratioP2;P2;SDS_P1;SDS_P2;PMS_P1;PMS_P2;Temp;Humidity;BMP_temperature;BMP_pressure;BME280_temperature;BME280_humidity;BME280_pressure;Samples;Min_cycle;Max_cycle;Signal;HPM_P1;HPM_P2
2022/02/17 00:04:20;;;;;;;;;;;12.10;99.90;;;;;;5033633;28;19951;-95
2022/02/17 00:06:46;;;;;;;;;;;12.10;99.90;;;;;;5046750;28;19905;-94
2022/02/17 00:09:32;;;;;;;;;;;;;;;;;;;;;
2022/02/17 00:12:03;;;;;;;;;;;12.10;99.90;;;;;;5047302;28;19939;-94
2022/02/17 00:14:28;;;;;;;;;;;12.10;99.90;;;;;;5030989;28;20075;-95
2022/02/17 00:16:54;;;;;;;;;;;12.10;99.90;;;;;;5028513;28;19905;-94
2022/02/17 00:19:20;;;;;;;;;;;12.10;99.90;;;;;;5028748;28;19905;-94
2022/02/17 00:21:58;;;;;;;;;;;12.10;99.90;;;;;;5043652;28;19920;-94
2022/02/17 00:24:23;;;;;;;;;;;12.10;99.90;;;;;;5026821;28;19937;-94
2022/02/17 00:26:49;;;;;;;;;;;12.10;99.90;;;;;;5029403;28;19912;-92
2022/02/17 00:29:14;;;;;;;;;;;12.10;99.90;;;;;;5036422;28;19940;-93
2022/02/17 00:31:40;;;;;;;;;;;12.10;99.90;;;;;;5034586;28;20154;-95
2022/02/17 00:34:16;;;;;;;;;;;;;;;;;;;;;
2022/02/17 00:36:42;;;;;;;;;;;12.20;99.90;;;;;;5044610;28;19941;-93
2022/02/17 00:39:08;;;;;;;;;;;12.20;99.90;;;;;;5042621;28;19912;-93
2022/02/17 00:41:34;;;;;;;;;;;12.20;99.90;;;;;;5042781;28;20098;-95
2022/02/17 00:44:13;;;;;;;;;;;12.20;99.90;;;;;;5042961;28;19909;-95
2022/02/17 00:46:39;;;;;;;;;;;12.20;99.90;;;;;;5042300;28;19905;-93
2022/02/17 00:51:54;;;;;;;;;;;12.20;99.90;;;;;;5044066;28;19951;-94
2022/02/17 00:54:27;;;;;;;;;;;12.20;99.90;;;;;;5026403;28;19905;-94
2022/02/17 00:56:57;;;;;;;;;;;12.20;99.90;;;;;;5026127;28;19944;-94
2022/02/17 00:59:36;;;;;;;;;;;;;;;;;;;;;
2022/02/17 01:02:05;;;;;;;;;;;12.20;99.90;;;;;;5042897;28;20169;-94
2022/02/17 01:04:30;;;;;;;;;;;12.20;99.90;;;;;;5027103;28;19905;-94
2022/02/17 01:06:56;;;;;;;;;;;12.20;99.90;;;;;;5025678;28;19951;-94
2022/02/17 01:09:21;;;;;;;;;;;12.20;99.90;;;;;;5025274;28;19921;-95
2022/02/17 01:11:47;;;;;;;;;;;12.20;99.90;;;;;;5027491;28;19905;-94
2022/02/17 01:14:13;;;;;;;;;;;12.20;99.90;;;;;;5041476;28;19924;-93
2022/02/17 01:16:39;;;;;;;;;;;12.20;99.90;;;;;;5043662;28;19912;-93
2022/02/17 01:19:04;;;;;;;;;;;12.20;99.90;;;;;;5028182;28;19912;-94
2022/02/17 01:21:33;;;;;;;;;;;12.20;99.90;;;;;;5027907;28;19921;-94
2022/02/17 01:24:02;;;;;;;;;;;12.20;99.90;;;;;;5046950;28;19992;-94
2022/02/17 01:26:58;;;;;;;;;;;12.20;99.90;;;;;;5029505;28;19905;-94
2022/02/17 01:29:26;;;;;;;;;;;12.20;99.90;;;;;;5044950;28;19905;-95
2022/02/17 01:32:06;;;;;;;;;;;12.30;99.90;;;;;;5030677;28;19912;-95
2022/02/17 01:34:39;;;;;;;;;;;12.20;99.90;;;;;;5032750;28;20212;-94
2022/02/17 01:37:47;;;;;;;;;;;;;;;;;;;;;
2022/02/17 01:40:55;;;;;;;;;;;;;;;;;;;;;
2022/02/17 01:53:37;;;;;;;;;;;;;;;;;;;;;
2022/02/17 01:59:20;;;;;;;;;;;12.30;99.90;;;;;;4848239;29;19915;-94
2022/02/17 02:02:05;;;;;;;;;;;12.20;99.90;;;;;;4896000;29;19915;-92
2022/02/17 02:05:03;;;;;;;;;;;;;;;;;;;;;
2022/02/17 02:07:47;;;;;;;;;;;12.20;99.90;;;;;;4944983;29;20171;-96
2022/02/17 02:10:54;;;;;;;;;;;12.20;99.90;;;;;;4944554;29;19946;-95
2022/02/17 02:16:34;;;;;;;;;;;12.20;99.90;;;;;;4925815;28;19948;-93
2022/02/17 02:19:00;;;;;;;;;;;12.20;99.90;;;;;;5022026;28;19905;-94
2022/02/17 02:21:37;;;;;;;;;;;12.20;99.90;;;;;;5021934;28;20223;-94
2022/02/17 02:24:42;;;;;;;;;;;;;;;;;;;;;
2022/02/17 02:27:23;;;;;;;;;;;12.20;99.90;;;;;;5020712;28;19943;-94
2022/02/17 02:29:49;;;;;;;;;;;12.20;99.90;;;;;;5022132;28;19905;-96
2022/02/17 02:32:31;;;;;;;;;;;12.20;99.90;;;;;;5022203;28;19905;-96
2022/02/17 02:34:56;;;;;;;;;;;12.20;99.90;;;;;;5020247;28;19906;-93
2022/02/17 02:37:32;;;;;;;;;;;12.30;99.90;;;;;;5016719;28;20078;-94
2022/02/17 02:40:03;;;;;;;;;;;12.30;99.90;;;;;;5021904;28;19914;-96
2022/02/17 02:42:31;;;;;;;;;;;12.30;99.90;;;;;;5022682;28;19948;-93
2022/02/17 02:45:16;;;;;;;;;;;12.30;99.90;;;;;;5029569;28;19912;-93
2022/02/17 02:48:08;;;;;;;;;;;12.30;99.90;;;;;;5021893;28;19950;-93
2022/02/17 02:50:55;;;;;;;;;;;12.30;99.90;;;;;;5017150;28;19905;-93
2022/02/17 02:53:36;;;;;;;;;;;12.30;99.90;;;;;;5028690;28;19993;-93
2022/02/17 02:56:25;;;;;;;;;;;12.30;99.90;;;;;;5023075;28;19947;-92
2022/02/17 02:59:11;;;;;;;;;;;12.30;99.90;;;;;;5024083;28;19940;-95
2022/02/17 03:02:00;;;;;;;;;;;12.30;99.90;;;;;;5040445;28;19952;-96
2022/02/17 03:04:56;;;;;;;;;;;12.30;99.90;;;;;;5032283;28;19905;-96
2022/02/17 03:10:37;;;;;;;;;;;;;;;;;;;;;
2022/02/17 03:16:14;;;;;;;;;;;12.30;99.90;;;;;;4935139;29;20056;-96
2022/02/17 03:22:43;;;;;;;;;;;12.20;99.90;;;;;;4967615;28;19940;-94
2022/02/17 03:25:47;;;;;;;;;;;12.20;99.90;;;;;;4927322;29;19906;-94
2022/02/17 03:28:33;;;;;;;;;;;12.20;99.90;;;;;;4959995;28;20183;-94
2022/02/17 03:31:05;;;;;;;;;;;12.30;99.90;;;;;;5000128;28;19936;-94
2022/02/17 03:37:14;;;;;;;;;;;;;;;;;;;;;
2022/02/17 03:39:53;;;;;;;;;;;12.20;99.90;;;;;;4899765;29;19920;-96
2022/02/17 03:42:30;;;;;;;;;;;12.20;99.90;;;;;;4875004;29;19928;-95
2022/02/17 03:48:11;;;;;;;;;;;12.20;99.90;;;;;;5028585;28;19916;-96
2022/02/17 03:54:19;;;;;;;;;;;12.20;99.90;;;;;;4982988;28;19914;-95
2022/02/17 04:00:50;;;;;;;;;;;12.20;99.90;;;;;;4927159;29;19979;-95
2022/02/17 04:09:58;;;;;;;;;;;12.20;99.90;;;;;;4926261;29;20010;-94
2022/02/17 04:22:13;;;;;;;;;;;12.20;99.90;;;;;;4850189;29;19924;-93
2022/02/17 04:27:41;;;;;;;;;;;12.20;99.90;;;;;;4842423;29;19909;-94
2022/02/17 04:30:17;;;;;;;;;;;12.20;99.90;;;;;;4851410;29;19946;-94
2022/02/17 04:32:49;;;;;;;;;;;12.20;99.90;;;;;;4888412;29;20026;-96
2022/02/17 04:35:17;;;;;;;;;;;12.20;99.90;;;;;;4888312;29;20128;-95
2022/02/17 04:37:50;;;;;;;;;;;12.20;99.90;;;;;;4967254;28;19941;-93
2022/02/17 04:40:16;;;;;;;;;;;12.20;99.90;;;;;;5026758;28;20125;-96
2022/02/17 04:42:41;;;;;;;;;;;12.20;99.90;;;;;;5031860;28;19905;-93
2022/02/17 04:45:07;;;;;;;;;;;12.20;99.90;;;;;;5038779;28;19928;-94
2022/02/17 04:47:33;;;;;;;;;;;12.20;99.90;;;;;;5026962;28;19909;-94
2022/02/17 04:49:59;;;;;;;;;;;12.20;99.90;;;;;;5026655;28;19944;-94
2022/02/17 04:52:24;;;;;;;;;;;12.20;99.90;;;;;;5027145;28;20162;-94
2022/02/17 04:54:51;;;;;;;;;;;12.20;99.90;;;;;;5042517;28;19911;-96
2022/02/17 04:57:16;;;;;;;;;;;12.20;99.90;;;;;;5026543;28;19905;-93
2022/02/17 04:59:42;;;;;;;;;;;12.20;99.90;;;;;;5026836;28;19912;-94
2022/02/17 05:02:08;;;;;;;;;;;12.30;99.90;;;;;;5026489;28;19920;-93
2022/02/17 05:04:33;;;;;;;;;;;12.30;99.90;;;;;;5026178;28;20019;-92
2022/02/17 05:06:59;;;;;;;;;;;12.30;99.90;;;;;;5028151;28;20178;-94
2022/02/17 05:09:24;;;;;;;;;;;12.20;99.90;;;;;;5042565;28;19948;-95
2022/02/17 05:11:53;;;;;;;;;;;12.30;99.90;;;;;;5041984;28;20185;-93
2022/02/17 05:14:18;;;;;;;;;;;12.20;99.90;;;;;;5043532;28;19967;-94
2022/02/17 05:16:44;;;;;;;;;;;12.30;99.90;;;;;;5026662;28;20185;-94
2022/02/17 05:19:13;;;;;;;;;;;12.20;99.90;;;;;;5026879;28;19912;-94
2022/02/17 05:21:38;;;;;;;;;;;12.30;99.90;;;;;;5026644;28;19916;-93
2022/02/17 05:24:04;;;;;;;;;;;12.30;99.90;;;;;;5026589;28;19909;-93
2022/02/17 05:26:33;;;;;;;;;;;12.20;99.90;;;;;;5042400;28;19913;-94
2022/02/17 05:28:59;;;;;;;;;;;12.20;99.90;;;;;;5021357;28;19909;-93
2022/02/17 05:31:24;;;;;;;;;;;12.20;99.90;;;;;;5029900;28;19920;-94
2022/02/17 05:33:50;;;;;;;;;;;12.30;99.90;;;;;;5013115;28;19917;-94
2022/02/17 05:36:15;;;;;;;;;;;12.20;99.90;;;;;;5016764;28;19945;-94
2022/02/17 05:38:41;;;;;;;;;;;12.20;99.90;;;;;;5013918;28;19921;-94
2022/02/17 05:41:12;;;;;;;;;;;12.20;99.90;;;;;;5012687;28;20009;-96
2022/02/17 05:43:38;;;;;;;;;;;12.30;99.90;;;;;;5016992;28;19920;-95
2022/02/17 05:46:06;;;;;;;;;;;12.30;99.90;;;;;;5014164;28;19917;-95
2022/02/17 05:48:32;;;;;;;;;;;12.30;99.90;;;;;;5015654;28;19917;-94
2022/02/17 05:50:57;;;;;;;;;;;12.30;99.90;;;;;;5025932;28;19917;-93
2022/02/17 05:53:23;;;;;;;;;;;12.30;99.90;;;;;;5018568;28;19913;-94
2022/02/17 05:55:56;;;;;;;;;;;12.30;99.90;;;;;;5011948;28;19910;-94
2022/02/17 05:58:23;;;;;;;;;;;12.30;99.90;;;;;;5031229;28;20018;-94
2022/02/17 06:00:50;;;;;;;;;;;12.20;99.90;;;;;;5036114;28;19972;-94
2022/02/17 06:03:16;;;;;;;;;;;12.30;99.90;;;;;;5037634;28;20349;-95
2022/02/17 06:06:02;;;;;;;;;;;12.30;99.90;;;;;;5012446;28;19951;-95
2022/02/17 06:08:27;;;;;;;;;;;12.30;99.90;;;;;;5031306;28;20012;-93
2022/02/17 06:10:53;;;;;;;;;;;12.30;99.90;;;;;;5029070;28;19909;-92
2022/02/17 06:13:19;;;;;;;;;;;12.30;99.90;;;;;;5037277;28;20011;-94
2022/02/17 06:15:47;;;;;;;;;;;12.30;99.90;;;;;;5028549;28;19920;-95
2022/02/17 06:18:16;;;;;;;;;;;12.30;99.90;;;;;;5029072;28;19932;-95
2022/02/17 06:20:42;;;;;;;;;;;12.30;99.90;;;;;;5045449;28;19990;-94
2022/02/17 06:23:13;;;;;;;;;;;12.20;99.90;;;;;;5027268;28;19917;-95
2022/02/17 06:26:02;;;;;;;;;;;12.30;99.90;;;;;;5036760;28;19909;-95
2022/02/17 06:34:12;;;;;;;;;;;12.20;99.90;;;;;;5011608;28;19916;-93
2022/02/17 06:36:51;;;;;;;;;;;;;;;;;;;;;
2022/02/17 06:39:55;;;;;;;;;;;12.20;99.90;;;;;;5044871;28;19952;-95
2022/02/17 06:42:33;;;;;;;;;;;12.20;99.90;;;;;;5009341;28;19922;-94
2022/02/17 07:16:59;;;;;;;;;;;12.40;99.90;;;;;;5047001;23;20105;-94
2022/02/17 07:22:56;;;;;;;;;;;12.30;99.90;;;;;;4974159;28;19925;-94
2022/02/17 07:25:44;;;;;;;;;;;12.30;99.90;;;;;;4972818;28;19909;-94
2022/02/17 07:31:18;;;;;;;;;;;12.30;99.90;;;;;;4984678;28;19909;-94
2022/02/17 07:34:03;;;;;;;;;;;;;;;;;;;;;
2022/02/17 07:39:27;;;;;;;;;;;12.30;99.90;;;;;;5016549;28;19957;-95
2022/02/17 07:42:16;;;;;;;;;;;12.40;99.90;;;;;;5015980;28;19917;-94
2022/02/17 07:45:10;;;;;;;;;;;;;;;;;;;;;
2022/02/17 07:47:48;;;;;;;;;;;;;;;;;;;;;
2022/02/17 07:53:06;;;;;;;;;;;12.40;99.90;;;;;;4994318;28;19914;-94
2022/02/17 07:58:35;;;;;;;;;;;;;;;;;;;;;
2022/02/17 08:01:06;;;;;;;;;;;12.40;99.90;;;;;;5034815;28;19921;-94
2022/02/17 08:03:49;;;;;;;;;;;12.40;99.90;;;;;;5006591;28;19909;-93
2022/02/17 08:06:29;;;;;;;;;;;12.50;99.90;;;;;;5012456;28;19988;-95
2022/02/17 08:08:54;;;;;;;;;;;12.40;99.90;;;;;;5017207;28;19909;-95
2022/02/17 08:11:20;;;;;;;;;;;12.40;99.90;;;;;;5003916;28;19916;-94
2022/02/17 08:14:11;;;;;;;;;;;12.40;99.90;;;;;;5011046;28;20025;-94
2022/02/17 08:16:41;;;;;;;;;;;12.40;99.90;;;;;;5016329;28;20360;-94
2022/02/17 08:19:17;;;;;;;;;;;12.40;99.90;;;;;;5016896;28;19985;-95
2022/02/17 08:21:56;;;;;;;;;;;12.50;99.90;;;;;;5006113;28;19987;-94
2022/02/17 08:24:22;;;;;;;;;;;12.50;99.90;;;;;;4997810;28;19910;-94
2022/02/17 08:26:50;;;;;;;;;;;12.50;99.90;;;;;;5002744;28;19916;-94
2022/02/17 08:29:15;;;;;;;;;;;12.50;99.90;;;;;;5016439;28;19916;-94
2022/02/17 08:31:43;;;;;;;;;;;12.50;99.90;;;;;;5012288;28;19988;-94
2022/02/17 08:34:08;;;;;;;;;;;12.50;99.90;;;;;;5016275;28;19909;-94
2022/02/17 08:36:37;;;;;;;;;;;12.50;99.90;;;;;;5017585;28;19913;-94
2022/02/17 08:39:03;;;;;;;;;;;12.60;99.90;;;;;;4997828;28;19924;-94
2022/02/17 08:41:29;;;;;;;;;;;12.60;99.90;;;;;;4997270;28;19925;-95
2022/02/17 08:43:55;;;;;;;;;;;12.60;99.90;;;;;;4997644;28;19909;-94
2022/02/17 08:46:20;;;;;;;;;;;12.60;99.90;;;;;;5004015;28;20290;-94
2022/02/17 08:48:48;;;;;;;;;;;12.50;99.90;;;;;;5003714;28;20271;-95
2022/02/17 08:51:16;;;;;;;;;;;12.50;99.90;;;;;;5013838;28;19909;-93
2022/02/17 08:53:45;;;;;;;;;;;12.50;99.90;;;;;;5009686;28;19953;-94
2022/02/17 08:56:11;;;;;;;;;;;12.50;99.90;;;;;;5016396;28;19910;-94
2022/02/17 08:58:37;;;;;;;;;;;12.40;99.90;;;;;;5009864;28;19975;-94
2022/02/17 09:01:02;;;;;;;;;;;12.50;99.90;;;;;;4999994;28;20012;-95
2022/02/17 09:03:28;;;;;;;;;;;12.50;99.90;;;;;;4997430;28;19910;-94
2022/02/17 09:05:54;;;;;;;;;;;12.50;99.90;;;;;;5010095;28;20000;-94
2022/02/17 09:08:20;;;;;;;;;;;12.50;99.90;;;;;;4997881;28;19913;-94
2022/02/17 09:10:46;;;;;;;;;;;12.50;99.90;;;;;;4997267;28;20004;-94
2022/02/17 09:13:12;;;;;;;;;;;12.60;99.90;;;;;;4999841;28;19909;-93
2022/02/17 09:15:38;;;;;;;;;;;12.60;99.90;;;;;;5015552;28;19917;-93
2022/02/17 09:18:04;;;;;;;;;;;12.60;99.90;;;;;;4998395;28;19914;-93
2022/02/17 09:20:30;;;;;;;;;;;12.80;99.90;;;;;;4997040;28;19918;-94
2022/02/17 09:22:55;;;;;;;;;;;12.80;99.90;;;;;;4997780;28;19916;-93
2022/02/17 09:25:22;;;;;;;;;;;12.90;99.90;;;;;;5009611;28;19916;-93
2022/02/17 09:27:48;;;;;;;;;;;13.00;99.90;;;;;;5017393;28;19936;-94
2022/02/17 09:30:14;;;;;;;;;;;13.10;99.90;;;;;;5020592;28;19909;-93
2022/02/17 09:32:40;;;;;;;;;;;13.10;99.90;;;;;;4996969;28;19914;-94
2022/02/17 09:35:10;;;;;;;;;;;13.10;99.90;;;;;;4997219;28;20193;-93
2022/02/17 09:37:37;;;;;;;;;;;13.20;99.90;;;;;;5010041;28;19909;-93
2022/02/17 09:40:03;;;;;;;;;;;13.20;99.90;;;;;;5016545;28;19913;-93
2022/02/17 09:42:36;;;;;;;;;;;13.30;99.90;;;;;;5015199;28;19996;-93
2022/02/17 09:45:06;;;;;;;;;;;13.30;99.90;;;;;;5009627;28;19957;-93
2022/02/17 09:47:32;;;;;;;;;;;13.40;99.90;;;;;;5009640;28;19955;-93
2022/02/17 09:49:58;;;;;;;;;;;13.40;99.90;;;;;;4996618;28;19996;-93
2022/02/17 09:52:24;;;;;;;;;;;13.50;99.90;;;;;;5013860;28;19909;-93
2022/02/17 09:54:51;;;;;;;;;;;13.60;99.90;;;;;;5005799;28;19947;-92
2022/02/17 09:57:20;;;;;;;;;;;13.50;99.90;;;;;;5006281;28;19910;-93
2022/02/17 09:59:45;;;;;;;;;;;13.50;99.90;;;;;;5009996;28;19909;-93
2022/02/17 10:02:20;;;;;;;;;;;13.50;99.90;;;;;;5015165;28;20011;-93
2022/02/17 10:04:51;;;;;;;;;;;13.50;99.90;;;;;;5015182;28;20362;-94
2022/02/17 10:07:27;;;;;;;;;;;13.60;99.90;;;;;;5001773;28;20366;-93
2022/02/17 10:09:58;;;;;;;;;;;13.70;99.90;;;;;;5010020;28;19909;-93
2022/02/17 10:12:23;;;;;;;;;;;13.50;99.90;;;;;;5014674;28;19917;-94
2022/02/17 10:14:57;;;;;;;;;;;13.50;99.90;;;;;;5014819;28;19909;-93
2022/02/17 10:17:23;;;;;;;;;;;13.50;99.90;;;;;;5014859;28;19921;-93
2022/02/17 10:19:50;;;;;;;;;;;13.40;99.90;;;;;;5008873;28;19916;-94
2022/02/17 10:22:16;;;;;;;;;;;13.40;99.90;;;;;;5000706;28;19921;-92
2022/02/17 10:24:41;;;;;;;;;;;13.40;99.90;;;;;;5004295;28;20322;-93
2022/02/17 10:27:08;;;;;;;;;;;13.40;99.90;;;;;;5001102;28;19922;-93
2022/02/17 10:29:34;;;;;;;;;;;13.30;99.90;;;;;;5009815;28;19937;-93
2022/02/17 10:32:08;;;;;;;;;;;13.30;99.90;;;;;;5008322;28;20144;-92
2022/02/17 10:34:34;;;;;;;;;;;13.20;99.90;;;;;;5014291;28;20298;-93
2022/02/17 10:37:00;;;;;;;;;;;13.10;99.90;;;;;;5014244;28;19955;-93
2022/02/17 10:39:28;;;;;;;;;;;13.10;99.90;;;;;;5032256;28;19955;-92
2022/02/17 10:41:59;;;;;;;;;;;13.10;99.90;;;;;;5012724;28;19921;-93
2022/02/17 10:44:32;;;;;;;;;;;13.20;99.90;;;;;;4995227;28;19929;-93
2022/02/17 10:47:10;;;;;;;;;;;13.10;99.90;;;;;;5015228;28;19916;-93
2022/02/17 10:49:39;;;;;;;;;;;13.10;99.90;;;;;;5013931;28;20364;-92
2022/02/17 10:52:05;;;;;;;;;;;13.10;99.90;;;;;;5013675;28;19909;-92
2022/02/17 10:54:31;;;;;;;;;;;13.20;99.90;;;;;;5013989;28;19913;-92
2022/02/17 10:57:02;;;;;;;;;;;13.20;99.90;;;;;;5031518;28;19916;-93
2022/02/17 11:02:17;;;;;;;;;;;13.30;99.90;;;;;;5012173;28;19924;-92
2022/02/17 11:04:46;;;;;;;;;;;13.30;99.90;;;;;;5001348;28;19910;-93
2022/02/17 11:07:12;;;;;;;;;;;13.30;99.90;;;;;;4995337;28;19984;-92
2022/02/17 11:09:40;;;;;;;;;;;13.30;99.90;;;;;;5012648;28;19952;-92
2022/02/17 11:12:06;;;;;;;;;;;13.40;99.90;;;;;;5025239;28;19910;-94
2022/02/17 11:14:42;;;;;;;;;;;13.40;99.90;;;;;;5002087;28;19910;-92
2022/02/17 11:17:08;;;;;;;;;;;13.40;99.90;;;;;;5007922;28;19943;-92
2022/02/17 11:19:34;;;;;;;;;;;13.50;99.90;;;;;;5001420;28;19945;-92
2022/02/17 11:22:00;;;;;;;;;;;13.40;99.90;;;;;;5001920;28;19920;-92
2022/02/17 11:24:26;;;;;;;;;;;13.50;99.90;;;;;;5001885;28;20001;-94
2022/02/17 11:27:12;;;;;;;;;;;13.50;99.90;;;;;;5026369;28;19973;-93
2022/02/17 11:29:38;;;;;;;;;;;13.60;99.90;;;;;;5004790;28;19956;-93
2022/02/17 11:32:05;;;;;;;;;;;13.50;99.90;;;;;;4996137;28;19910;-94
2022/02/17 11:34:34;;;;;;;;;;;13.40;99.90;;;;;;5013714;28;19913;-94
2022/02/17 11:37:00;;;;;;;;;;;13.40;99.90;;;;;;4999841;28;20262;-95
2022/02/17 11:39:45;;;;;;;;;;;13.40;99.90;;;;;;5001247;28;19955;-94
2022/02/17 11:42:11;;;;;;;;;;;13.40;99.90;;;;;;5022520;28;19917;-93
2022/02/17 11:44:37;;;;;;;;;;;13.40;99.90;;;;;;5003443;28;19910;-92
2022/02/17 11:47:05;;;;;;;;;;;13.40;99.90;;;;;;5016136;28;19921;-93
2022/02/17 11:49:31;;;;;;;;;;;13.40;99.90;;;;;;5028734;28;19929;-93
2022/02/17 11:52:35;;;;;;;;;;;13.40;99.90;;;;;;5016484;28;19909;-93
2022/02/17 11:55:13;;;;;;;;;;;13.40;99.90;;;;;;5017040;28;19974;-93
2022/02/17 11:57:39;;;;;;;;;;;13.40;99.90;;;;;;5005120;28;19916;-93
2022/02/17 12:00:34;;;;;;;;;;;13.30;99.90;;;;;;4996276;28;19910;-93
2022/02/17 12:03:02;;;;;;;;;;;13.40;99.90;;;;;;5000972;28;19922;-94
2022/02/17 12:05:28;;;;;;;;;;;13.40;99.90;;;;;;5013661;28;19910;-94
2022/02/17 12:08:30;;;;;;;;;;;13.20;99.90;;;;;;5015281;28;19920;-94
2022/02/17 12:11:15;;;;;;;;;;;13.20;99.90;;;;;;4957625;28;19910;-94
2022/02/17 12:13:49;;;;;;;;;;;13.20;99.90;;;;;;5037156;28;19996;-95
2022/02/17 12:16:31;;;;;;;;;;;13.00;99.90;;;;;;5036156;28;19925;-93
2022/02/17 12:18:57;;;;;;;;;;;13.00;99.90;;;;;;5021320;28;19905;-93
2022/02/17 12:21:22;;;;;;;;;;;13.10;99.90;;;;;;5035721;28;19936;-94
2022/02/17 12:23:56;;;;;;;;;;;13.20;99.90;;;;;;5034170;28;20175;-93
2022/02/17 12:26:39;;;;;;;;;;;13.10;99.90;;;;;;5018604;28;19920;-94
2022/02/17 12:29:33;;;;;;;;;;;13.10;99.90;;;;;;5014517;28;19936;-94
2022/02/17 12:32:04;;;;;;;;;;;13.00;99.90;;;;;;5018167;28;19913;-93
2022/02/17 12:34:29;;;;;;;;;;;13.00;99.90;;;;;;5010483;28;19914;-93
2022/02/17 12:36:58;;;;;;;;;;;13.00;99.90;;;;;;5014483;28;19943;-92
2022/02/17 12:39:30;;;;;;;;;;;13.10;99.90;;;;;;5038065;28;19913;-94
2022/02/17 12:41:56;;;;;;;;;;;13.20;99.90;;;;;;5024121;28;19913;-93
2022/02/17 12:44:34;;;;;;;;;;;13.20;99.90;;;;;;5037607;28;19902;-93
2022/02/17 12:47:00;;;;;;;;;;;13.10;99.90;;;;;;5037499;28;19933;-92
2022/02/17 12:49:28;;;;;;;;;;;13.10;99.90;;;;;;5022395;28;19921;-92
2022/02/17 12:52:05;;;;;;;;;;;13.10;99.90;;;;;;5021512;28;19917;-92
2022/02/17 12:54:30;;;;;;;;;;;13.00;99.90;;;;;;5022461;28;19980;-93
2022/02/17 12:57:03;;;;;;;;;;;13.10;99.90;;;;;;5037351;28;19902;-92
2022/02/17 12:59:28;;;;;;;;;;;13.10;99.90;;;;;;5043018;28;19981;-93
2022/02/17 13:01:58;;;;;;;;;;;13.20;99.90;;;;;;5019826;28;19932;-92
2022/02/17 13:04:24;;;;;;;;;;;13.30;99.90;;;;;;5001913;28;19916;-92
2022/02/17 13:06:50;;;;;;;;;;;13.20;99.90;;;;;;5001901;28;19910;-92
2022/02/17 13:09:23;;;;;;;;;;;13.20;99.90;;;;;;5001943;28;20385;-92
2022/02/17 13:11:54;;;;;;;;;;;13.10;99.90;;;;;;5010853;28;20000;-92
2022/02/17 13:14:26;;;;;;;;;;;13.20;99.90;;;;;;5001808;28;19909;-93
2022/02/17 13:16:54;;;;;;;;;;;13.10;99.90;;;;;;5005799;28;20272;-92
2022/02/17 13:19:38;;;;;;;;;;;13.20;99.90;;;;;;5008210;28;19949;-92
2022/02/17 13:22:05;;;;;;;;;;;13.40;99.90;;;;;;5010145;28;19917;-93
2022/02/17 13:24:31;;;;;;;;;;;13.30;99.90;;;;;;5010250;28;19913;-92
2022/02/17 13:27:13;;;;;;;;;;;13.40;99.90;;;;;;5027188;28;20374;-93
2022/02/17 13:29:57;;;;;;;;;;;13.30;99.90;;;;;;5015146;28;19916;-92
2022/02/17 13:32:23;;;;;;;;;;;13.30;99.90;;;;;;5015176;28;19909;-92
2022/02/17 13:34:49;;;;;;;;;;;13.20;99.90;;;;;;5016965;28;20001;-93
2022/02/17 13:37:16;;;;;;;;;;;13.20;99.90;;;;;;5006007;28;19917;-93
2022/02/17 13:39:42;;;;;;;;;;;13.20;99.90;;;;;;4998917;28;19909;-93
2022/02/17 13:42:09;;;;;;;;;;;13.20;99.90;;;;;;5000402;28;19998;-92
2022/02/17 13:44:41;;;;;;;;;;;13.20;99.90;;;;;;5031035;28;19913;-91
2022/02/17 13:47:08;;;;;;;;;;;13.20;99.90;;;;;;5024598;28;19909;-92
2022/02/17 13:49:35;;;;;;;;;;;13.20;99.90;;;;;;5023637;28;19916;-92
2022/02/17 13:52:01;;;;;;;;;;;13.10;99.90;;;;;;5012416;28;20354;-93
2022/02/17 13:54:46;;;;;;;;;;;13.10;99.90;;;;;;5012972;28;19967;-92
2022/02/17 13:57:12;;;;;;;;;;;13.10;99.90;;;;;;5007455;28;19909;-93
2022/02/17 13:59:37;;;;;;;;;;;13.10;99.90;;;;;;5002828;28;20440;-92
2022/02/17 14:02:03;;;;;;;;;;;13.00;99.90;;;;;;4997948;28;19979;-93
2022/02/17 14:04:30;;;;;;;;;;;12.90;99.90;;;;;;5007358;28;19909;-92
2022/02/17 14:06:56;;;;;;;;;;;12.90;99.90;;;;;;5012051;28;20267;-94
2022/02/17 14:09:22;;;;;;;;;;;12.80;99.90;;;;;;5000432;28;19955;-92
2022/02/17 14:11:50;;;;;;;;;;;12.80;99.90;;;;;;5012090;28;19909;-92
2022/02/17 14:14:16;;;;;;;;;;;12.80;99.90;;;;;;5012646;28;20320;-92
2022/02/17 14:16:48;;;;;;;;;;;12.70;99.90;;;;;;5005472;28;19922;-93
2022/02/17 14:19:14;;;;;;;;;;;12.70;99.90;;;;;;4995989;28;19910;-92
2022/02/17 14:21:39;;;;;;;;;;;12.70;99.90;;;;;;5013679;28;19918;-92
2022/02/17 14:24:06;;;;;;;;;;;12.70;99.90;;;;;;4996967;28;19987;-92
2022/02/17 14:26:32;;;;;;;;;;;12.70;99.90;;;;;;5002701;28;19913;-95
2022/02/17 14:28:58;;;;;;;;;;;12.60;99.90;;;;;;5019425;28;19948;-92
2022/02/17 14:31:24;;;;;;;;;;;12.60;99.90;;;;;;5011194;28;20354;-93
2022/02/17 14:33:49;;;;;;;;;;;12.50;99.90;;;;;;4998002;28;19916;-92
2022/02/17 14:36:15;;;;;;;;;;;12.50;99.90;;;;;;5009806;28;19951;-92
2022/02/17 14:38:41;;;;;;;;;;;12.60;99.90;;;;;;5009057;28;19913;-92
2022/02/17 14:41:07;;;;;;;;;;;12.60;99.90;;;;;;5015252;28;19917;-93
2022/02/17 14:43:34;;;;;;;;;;;12.70;99.90;;;;;;5016494;28;19996;-93
2022/02/17 14:46:00;;;;;;;;;;;12.70;99.90;;;;;;5015228;28;19916;-93
2022/02/17 14:48:26;;;;;;;;;;;12.80;99.90;;;;;;5008630;28;19986;-92
2022/02/17 14:50:53;;;;;;;;;;;12.80;99.90;;;;;;5010428;28;19965;-93
2022/02/17 14:53:21;;;;;;;;;;;12.80;99.90;;;;;;5014435;28;19909;-92
2022/02/17 14:55:49;;;;;;;;;;;12.80;99.90;;;;;;5002404;28;19909;-93
2022/02/17 14:58:15;;;;;;;;;;;12.90;99.90;;;;;;5009846;28;19909;-93
2022/02/17 15:00:41;;;;;;;;;;;12.90;99.90;;;;;;5017150;28;19925;-93
2022/02/17 15:03:09;;;;;;;;;;;12.80;99.90;;;;;;5032417;28;20020;-94
2022/02/17 15:05:34;;;;;;;;;;;12.90;99.90;;;;;;5008774;28;20382;-94
2022/02/17 15:08:00;;;;;;;;;;;12.80;99.90;;;;;;5002630;28;19965;-94
2022/02/17 15:10:25;;;;;;;;;;;12.80;99.90;;;;;;5013851;28;19917;-95
2022/02/17 15:12:51;;;;;;;;;;;12.90;99.90;;;;;;5014760;28;19916;-94
2022/02/17 15:15:17;;;;;;;;;;;12.90;99.90;;;;;;5014590;28;19909;-93
2022/02/17 15:17:43;;;;;;;;;;;12.90;99.90;;;;;;5015592;28;19910;-94
2022/02/17 15:20:20;;;;;;;;;;;12.90;99.90;;;;;;5014893;28;19955;-94
2022/02/17 15:22:50;;;;;;;;;;;12.90;99.90;;;;;;4997325;28;20178;-95
2022/02/17 15:25:18;;;;;;;;;;;12.80;99.90;;;;;;5029608;28;19976;-94
2022/02/17 15:27:44;;;;;;;;;;;12.80;99.90;;;;;;5009847;28;20078;-94
2022/02/17 15:30:10;;;;;;;;;;;12.80;99.90;;;;;;5002735;28;20088;-95
2022/02/17 15:32:36;;;;;;;;;;;12.80;99.90;;;;;;5019809;28;20353;-95
2022/02/17 15:35:02;;;;;;;;;;;12.70;99.90;;;;;;4995409;28;19961;-95
2022/02/17 15:37:28;;;;;;;;;;;12.70;99.90;;;;;;5003483;28;20000;-94
2022/02/17 15:39:57;;;;;;;;;;;12.70;99.90;;;;;;5001942;28;19940;-96
2022/02/17 15:42:24;;;;;;;;;;;12.60;99.90;;;;;;5026446;28;19921;-95
2022/02/17 15:44:49;;;;;;;;;;;12.60;99.90;;;;;;5011221;28;20017;-96
2022/02/17 15:47:15;;;;;;;;;;;12.60;99.90;;;;;;5014445;28;20375;-94
2022/02/17 15:49:41;;;;;;;;;;;12.60;99.90;;;;;;5001392;28;20387;-94
2022/02/17 15:52:06;;;;;;;;;;;12.50;99.90;;;;;;5000303;28;19909;-93
2022/02/17 15:54:34;;;;;;;;;;;12.50;99.90;;;;;;5016245;28;20385;-95
2022/02/17 15:57:00;;;;;;;;;;;12.50;99.90;;;;;;5018295;28;19909;-95
2022/02/17 15:59:25;;;;;;;;;;;12.50;99.90;;;;;;5002839;28;20393;-94
2022/02/17 16:01:51;;;;;;;;;;;12.50;99.90;;;;;;5005560;28;19968;-94
2022/02/17 16:04:17;;;;;;;;;;;12.50;99.90;;;;;;5012472;28;19983;-94
2022/02/17 16:06:42;;;;;;;;;;;12.60;99.90;;;;;;4998905;28;19909;-94
2022/02/17 16:09:08;;;;;;;;;;;12.60;99.90;;;;;;5008219;28;20004;-95
2022/02/17 16:11:36;;;;;;;;;;;12.60;99.90;;;;;;5012475;28;20052;-94
2022/02/17 16:14:02;;;;;;;;;;;12.60;99.90;;;;;;5005099;28;19910;-94
2022/02/17 16:16:31;;;;;;;;;;;12.50;99.90;;;;;;5025255;28;19928;-93
2022/02/17 16:18:56;;;;;;;;;;;12.60;99.90;;;;;;5010469;28;20333;-94
2022/02/17 16:21:22;;;;;;;;;;;12.60;99.90;;;;;;5000409;28;19922;-94
2022/02/17 16:23:48;;;;;;;;;;;12.60;99.90;;;;;;5018627;28;19932;-93
2022/02/17 16:26:16;;;;;;;;;;;12.50;99.90;;;;;;5013607;28;19910;-95
2022/02/17 16:28:42;;;;;;;;;;;12.50;99.90;;;;;;5006655;28;19909;-93
2022/02/17 16:31:08;;;;;;;;;;;12.50;99.90;;;;;;5001894;28;19952;-96
2022/02/17 16:33:34;;;;;;;;;;;12.40;99.90;;;;;;5005972;28;20412;-95
2022/02/17 16:36:03;;;;;;;;;;;12.40;99.90;;;;;;5006437;28;19916;-94
2022/02/17 16:38:29;;;;;;;;;;;12.30;99.90;;;;;;4999458;28;20039;-94
2022/02/17 16:40:56;;;;;;;;;;;12.30;99.90;;;;;;5011127;28;19968;-95
2022/02/17 16:43:21;;;;;;;;;;;12.30;99.90;;;;;;5024357;28;20279;-95
2022/02/17 16:45:47;;;;;;;;;;;12.30;99.90;;;;;;5013271;28;19917;-94
2022/02/17 16:48:13;;;;;;;;;;;12.20;99.90;;;;;;5024203;28;19955;-94
2022/02/17 16:50:41;;;;;;;;;;;12.30;99.90;;;;;;5006091;28;19910;-94
2022/02/17 16:53:08;;;;;;;;;;;12.20;99.90;;;;;;4999718;28;19917;-94